sensor_id;sensor_type;location;lat;lon;timestamp;P1;durP1;ratioP1;P2;durP2;ratioP2
47669;SDS011;33408;52.062;11.722;2022-12-29T00:01:51;5.10;;;2.13;;
47669;SDS011;33408;52.062;11.722;2022-12-29T00:04:18;5.38;;;2.30;;
47669;SDS011;33408;52.062;11.722;2022-12-29T00:06:46;4.60;;;2.22;;
47669;SDS011;33408;52.062;11.722;2022-12-29T00:09:13;4.63;;;2.50;;
47669;SDS011;33408;52.062;11.722;2022-12-29T00:11:42;7.53;;;2.67;;
47669;SDS011;33408;52.062;11.722;2022-12-29T00:14:09;3.83;;;2.05;;
47669;SDS011;33408;52.062;11.722;2022-12-29T00:16:54;5.25;;;1.92;;
47669;SDS011;33408;52.062;11.722;2022-12-29T00:19:20;4.75;;;2.40;;
47669;SDS011;33408;52.062;11.722;2022-12-29T00:22:07;4.10;;;2.03;;
47669;SDS011;33408;52.062;11.722;2022-12-29T00:24:55;5.28;;;2.60;;
47669;SDS011;33408;52.062;11.722;2022-12-29T00:27:50;6.00;;;2.50;;
47669;SDS011;33408;52.062;11.722;2022-12-29T00:30:34;4.20;;;2.00;;
47669;SDS011;33408;52.062;11.722;2022-12-29T00:33:20;5.38;;;2.67;;
47669;SDS011;33408;52.062;11.722;2022-12-29T00:36:10;5.88;;;2.10;;
47669;SDS011;33408;52.062;11.722;2022-12-29T00:38:43;4.57;;;2.45;;
47669;SDS011;33408;52.062;11.722;2022-12-29T00:41:30;6.40;;;2.20;;
47669;SDS011;33408;52.062;11.722;2022-12-29T00:44:15;7.45;;;2.70;;
47669;SDS011;33408;52.062;11.722;2022-12-29T00:46:42;7.07;;;3.38;;
47669;SDS011;33408;52.062;11.722;2022-12-29T00:49:09;6.00;;;3.20;;
47669;SDS011;33408;52.062;11.722;2022-12-29T00:51:56;6.38;;;3.40;;
47669;SDS011;33408;52.062;11.722;2022-12-29T00:54:26;9.60;;;3.70;;
47669;SDS011;33408;52.062;11.722;2022-12-29T00:56:53;9.80;;;3.15;;
47669;SDS011;33408;52.062;11.722;2022-12-29T00:59:20;5.30;;;3.22;;
47669;SDS011;33408;52.062;11.722;2022-12-29T01:01:49;6.00;;;2.63;;
47669;SDS011;33408;52.062;11.722;2022-12-29T01:04:16;8.77;;;3.38;;
47669;SDS011;33408;52.062;11.722;2022-12-29T01:06:42;6.90;;;2.92;;
47669;SDS011;33408;52.062;11.722;2022-12-29T01:09:09;6.57;;;2.75;;
47669;SDS011;33408;52.062;11.722;2022-12-29T01:11:55;6.30;;;2.88;;
47669;SDS011;33408;52.062;11.722;2022-12-29T01:14:22;6.18;;;2.40;;
47669;SDS011;33408;52.062;11.722;2022-12-29T01:16:50;5.30;;;2.58;;
47669;SDS011;33408;52.062;11.722;2022-12-29T01:19:17;5.13;;;2.25;;
47669;SDS011;33408;52.062;11.722;2022-12-29T01:21:44;5.00;;;2.15;;
47669;SDS011;33408;52.062;11.722;2022-12-29T01:24:11;7.60;;;2.45;;
47669;SDS011;33408;52.062;11.722;2022-12-29T01:26:39;6.35;;;2.50;;
47669;SDS011;33408;52.062;11.722;2022-12-29T01:29:07;6.22;;;2.60;;
47669;SDS011;33408;52.062;11.722;2022-12-29T01:31:33;5.82;;;2.20;;
47669;SDS011;33408;52.062;11.722;2022-12-29T01:34:01;6.05;;;2.47;;
47669;SDS011;33408;52.062;11.722;2022-12-29T01:36:28;6.40;;;2.92;;
47669;SDS011;33408;52.062;11.722;2022-12-29T01:38:55;4.88;;;2.47;;
47669;SDS011;33408;52.062;11.722;2022-12-29T01:41:22;8.15;;;2.63;;
47669;SDS011;33408;52.062;11.722;2022-12-29T01:43:49;5.00;;;2.30;;
47669;SDS011;33408;52.062;11.722;2022-12-29T01:46:22;4.68;;;2.10;;
47669;SDS011;33408;52.062;11.722;2022-12-29T01:48:51;4.00;;;2.13;;
47669;SDS011;33408;52.062;11.722;2022-12-29T01:51:19;5.43;;;2.28;;
47669;SDS011;33408;52.062;11.722;2022-12-29T01:53:49;4.80;;;2.15;;
47669;SDS011;33408;52.062;11.722;2022-12-29T01:56:17;4.07;;;1.80;;
47669;SDS011;33408;52.062;11.722;2022-12-29T01:58:47;7.47;;;2.38;;
47669;SDS011;33408;52.062;11.722;2022-12-29T02:01:17;5.90;;;2.22;;
47669;SDS011;33408;52.062;11.722;2022-12-29T02:03:47;5.32;;;1.95;;
47669;SDS011;33408;52.062;11.722;2022-12-29T02:06:16;4.50;;;2.10;;
47669;SDS011;33408;52.062;11.722;2022-12-29T02:08:47;6.38;;;2.00;;
47669;SDS011;33408;52.062;11.722;2022-12-29T02:11:16;4.68;;;2.10;;
47669;SDS011;33408;52.062;11.722;2022-12-29T02:13:43;3.88;;;2.10;;
47669;SDS011;33408;52.062;11.722;2022-12-29T02:16:14;5.10;;;1.98;;
47669;SDS011;33408;52.062;11.722;2022-12-29T02:21:43;6.38;;;2.40;;
47669;SDS011;33408;52.062;11.722;2022-12-29T02:27:37;5.78;;;2.45;;
47669;SDS011;33408;52.062;11.722;2022-12-29T02:30:16;7.45;;;2.83;;
47669;SDS011;33408;52.062;11.722;2022-12-29T02:33:05;6.65;;;2.53;;
47669;SDS011;33408;52.062;11.722;2022-12-29T02:35:41;5.72;;;2.63;;
47669;SDS011;33408;52.062;11.722;2022-12-29T02:38:16;4.93;;;2.58;;
47669;SDS011;33408;52.062;11.722;2022-12-29T02:40:50;6.82;;;2.63;;
47669;SDS011;33408;52.062;11.722;2022-12-29T02:43:21;4.57;;;2.25;;
47669;SDS011;33408;52.062;11.722;2022-12-29T02:45:55;6.25;;;2.22;;
47669;SDS011;33408;52.062;11.722;2022-12-29T02:48:25;5.82;;;2.70;;
47669;SDS011;33408;52.062;11.722;2022-12-29T02:50:58;7.13;;;2.88;;
47669;SDS011;33408;52.062;11.722;2022-12-29T02:53:28;6.20;;;2.72;;
47669;SDS011;33408;52.062;11.722;2022-12-29T02:56:13;8.43;;;2.67;;
47669;SDS011;33408;52.062;11.722;2022-12-29T02:58:40;4.70;;;2.40;;
47669;SDS011;33408;52.062;11.722;2022-12-29T03:01:13;3.90;;;2.00;;
47669;SDS011;33408;52.062;11.722;2022-12-29T03:03:51;4.20;;;1.92;;
47669;SDS011;33408;52.062;11.722;2022-12-29T03:06:31;6.28;;;2.33;;
47669;SDS011;33408;52.062;11.722;2022-12-29T03:09:08;4.72;;;2.08;;
47669;SDS011;33408;52.062;11.722;2022-12-29T03:11:41;8.25;;;2.53;;
47669;SDS011;33408;52.062;11.722;2022-12-29T03:14:31;5.03;;;2.22;;
47669;SDS011;33408;52.062;11.722;2022-12-29T03:17:20;5.20;;;2.30;;
47669;SDS011;33408;52.062;11.722;2022-12-29T03:19:52;4.97;;;2.40;;
47669;SDS011;33408;52.062;11.722;2022-12-29T03:22:26;6.93;;;2.78;;
47669;SDS011;33408;52.062;11.722;2022-12-29T03:24:57;6.25;;;2.78;;
47669;SDS011;33408;52.062;11.722;2022-12-29T03:27:28;5.85;;;2.40;;
47669;SDS011;33408;52.062;11.722;2022-12-29T03:29:59;8.25;;;2.80;;
47669;SDS011;33408;52.062;11.722;2022-12-29T03:32:31;4.90;;;2.38;;
47669;SDS011;33408;52.062;11.722;2022-12-29T03:35:01;5.60;;;2.65;;
47669;SDS011;33408;52.062;11.722;2022-12-29T03:37:29;6.30;;;2.53;;
47669;SDS011;33408;52.062;11.722;2022-12-29T03:40:00;4.03;;;2.10;;
47669;SDS011;33408;52.062;11.722;2022-12-29T03:42:27;5.90;;;2.72;;
47669;SDS011;33408;52.062;11.722;2022-12-29T03:44:57;5.28;;;2.58;;
47669;SDS011;33408;52.062;11.722;2022-12-29T03:47:24;5.53;;;2.30;;
47669;SDS011;33408;52.062;11.722;2022-12-29T03:49:52;5.43;;;2.42;;
47669;SDS011;33408;52.062;11.722;2022-12-29T03:52:19;4.75;;;2.20;;
47669;SDS011;33408;52.062;11.722;2022-12-29T03:54:46;5.20;;;2.50;;
47669;SDS011;33408;52.062;11.722;2022-12-29T03:57:12;5.57;;;2.75;;
47669;SDS011;33408;52.062;11.722;2022-12-29T03:59:39;5.68;;;2.20;;
47669;SDS011;33408;52.062;11.722;2022-12-29T04:02:05;5.18;;;2.30;;
47669;SDS011;33408;52.062;11.722;2022-12-29T04:04:32;6.03;;;2.58;;
47669;SDS011;33408;52.062;11.722;2022-12-29T04:07:00;7.95;;;2.20;;
47669;SDS011;33408;52.062;11.722;2022-12-29T04:09:26;9.10;;;2.67;;
47669;SDS011;33408;52.062;11.722;2022-12-29T04:11:54;4.78;;;2.30;;
47669;SDS011;33408;52.062;11.722;2022-12-29T04:14:21;6.32;;;2.10;;
47669;SDS011;33408;52.062;11.722;2022-12-29T04:16:47;6.75;;;2.60;;
47669;SDS011;33408;52.062;11.722;2022-12-29T04:19:14;9.18;;;2.22;;
47669;SDS011;33408;52.062;11.722;2022-12-29T04:21:41;6.68;;;2.30;;
47669;SDS011;33408;52.062;11.722;2022-12-29T04:24:08;6.72;;;2.80;;
47669;SDS011;33408;52.062;11.722;2022-12-29T04:26:35;7.38;;;3.10;;
47669;SDS011;33408;52.062;11.722;2022-12-29T04:29:02;5.45;;;2.33;;
47669;SDS011;33408;52.062;11.722;2022-12-29T04:31:28;4.38;;;2.00;;
47669;SDS011;33408;52.062;11.722;2022-12-29T04:33:55;6.15;;;2.25;;
47669;SDS011;33408;52.062;11.722;2022-12-29T04:36:22;4.93;;;2.30;;
47669;SDS011;33408;52.062;11.722;2022-12-29T04:38:48;5.13;;;2.55;;
47669;SDS011;33408;52.062;11.722;2022-12-29T04:41:16;4.63;;;2.50;;
47669;SDS011;33408;52.062;11.722;2022-12-29T04:43:43;4.72;;;2.13;;
47669;SDS011;33408;52.062;11.722;2022-12-29T04:46:10;6.22;;;2.65;;
47669;SDS011;33408;52.062;11.722;2022-12-29T04:48:36;5.57;;;2.38;;
47669;SDS011;33408;52.062;11.722;2022-12-29T04:51:03;4.85;;;2.05;;
47669;SDS011;33408;52.062;11.722;2022-12-29T04:53:29;6.05;;;2.70;;
47669;SDS011;33408;52.062;11.722;2022-12-29T04:55:56;3.85;;;1.92;;
47669;SDS011;33408;52.062;11.722;2022-12-29T04:58:24;4.68;;;2.38;;
47669;SDS011;33408;52.062;11.722;2022-12-29T05:00:51;5.90;;;2.28;;
47669;SDS011;33408;52.062;11.722;2022-12-29T05:03:18;6.32;;;2.30;;
47669;SDS011;33408;52.062;11.722;2022-12-29T05:05:44;7.63;;;2.60;;
47669;SDS011;33408;52.062;11.722;2022-12-29T05:08:11;4.75;;;2.30;;
47669;SDS011;33408;52.062;11.722;2022-12-29T05:10:37;5.75;;;2.03;;
47669;SDS011;33408;52.062;11.722;2022-12-29T05:13:04;5.82;;;2.33;;
47669;SDS011;33408;52.062;11.722;2022-12-29T05:15:32;4.97;;;2.00;;
47669;SDS011;33408;52.062;11.722;2022-12-29T05:17:58;6.47;;;2.25;;
47669;SDS011;33408;52.062;11.722;2022-12-29T05:20:25;4.22;;;2.40;;
47669;SDS011;33408;52.062;11.722;2022-12-29T05:22:52;4.22;;;2.17;;
47669;SDS011;33408;52.062;11.722;2022-12-29T05:25:18;6.13;;;2.53;;
47669;SDS011;33408;52.062;11.722;2022-12-29T05:27:45;5.20;;;2.25;;
47669;SDS011;33408;52.062;11.722;2022-12-29T05:30:12;4.13;;;2.00;;
47669;SDS011;33408;52.062;11.722;2022-12-29T05:32:40;4.22;;;2.08;;
47669;SDS011;33408;52.062;11.722;2022-12-29T05:35:07;5.82;;;2.03;;
47669;SDS011;33408;52.062;11.722;2022-12-29T05:37:34;5.03;;;2.10;;
47669;SDS011;33408;52.062;11.722;2022-12-29T05:40:01;4.28;;;1.80;;
47669;SDS011;33408;52.062;11.722;2022-12-29T05:42:27;3.83;;;1.73;;
47669;SDS011;33408;52.062;11.722;2022-12-29T05:44:54;5.78;;;1.90;;
47669;SDS011;33408;52.062;11.722;2022-12-29T05:47:20;4.43;;;2.10;;
47669;SDS011;33408;52.062;11.722;2022-12-29T05:49:48;3.83;;;1.77;;
47669;SDS011;33408;52.062;11.722;2022-12-29T05:52:15;3.88;;;2.17;;
47669;SDS011;33408;52.062;11.722;2022-12-29T05:54:41;3.95;;;1.92;;
47669;SDS011;33408;52.062;11.722;2022-12-29T05:57:08;3.50;;;1.83;;
47669;SDS011;33408;52.062;11.722;2022-12-29T05:59:35;4.28;;;1.80;;
47669;SDS011;33408;52.062;11.722;2022-12-29T06:02:01;3.88;;;2.00;;
47669;SDS011;33408;52.062;11.722;2022-12-29T06:04:28;4.53;;;1.90;;
47669;SDS011;33408;52.062;11.722;2022-12-29T06:06:56;4.75;;;2.10;;
47669;SDS011;33408;52.062;11.722;2022-12-29T06:09:22;4.28;;;1.80;;
47669;SDS011;33408;52.062;11.722;2022-12-29T06:11:49;3.75;;;1.63;;
47669;SDS011;33408;52.062;11.722;2022-12-29T06:14:15;4.45;;;1.88;;
47669;SDS011;33408;52.062;11.722;2022-12-29T06:16:42;4.88;;;1.95;;
47669;SDS011;33408;52.062;11.722;2022-12-29T06:19:09;3.63;;;1.80;;
47669;SDS011;33408;52.062;11.722;2022-12-29T06:21:35;4.38;;;1.65;;
47669;SDS011;33408;52.062;11.722;2022-12-29T06:24:04;4.07;;;1.90;;
47669;SDS011;33408;52.062;11.722;2022-12-29T06:26:31;3.83;;;1.70;;
47669;SDS011;33408;52.062;11.722;2022-12-29T06:28:58;2.92;;;1.63;;
47669;SDS011;33408;52.062;11.722;2022-12-29T06:31:24;3.10;;;1.70;;
47669;SDS011;33408;52.062;11.722;2022-12-29T06:33:51;6.60;;;2.00;;
47669;SDS011;33408;52.062;11.722;2022-12-29T06:36:17;3.92;;;2.13;;
47669;SDS011;33408;52.062;11.722;2022-12-29T06:38:44;3.25;;;1.73;;
47669;SDS011;33408;52.062;11.722;2022-12-29T06:41:12;4.60;;;1.73;;
47669;SDS011;33408;52.062;11.722;2022-12-29T06:43:38;3.35;;;1.77;;
47669;SDS011;33408;52.062;11.722;2022-12-29T06:46:05;3.45;;;1.77;;
47669;SDS011;33408;52.062;11.722;2022-12-29T06:48:32;4.43;;;2.00;;
47669;SDS011;33408;52.062;11.722;2022-12-29T06:50:58;3.65;;;1.65;;
47669;SDS011;33408;52.062;11.722;2022-12-29T06:53:25;3.20;;;1.60;;
47669;SDS011;33408;52.062;11.722;2022-12-29T06:55:51;5.78;;;2.20;;
47669;SDS011;33408;52.062;11.722;2022-12-29T06:58:19;4.05;;;1.73;;
47669;SDS011;33408;52.062;11.722;2022-12-29T07:00:46;4.28;;;1.83;;
47669;SDS011;33408;52.062;11.722;2022-12-29T07:03:13;2.83;;;1.50;;
47669;SDS011;33408;52.062;11.722;2022-12-29T07:05:40;3.50;;;1.60;;
47669;SDS011;33408;52.062;11.722;2022-12-29T07:08:07;4.88;;;1.80;;
47669;SDS011;33408;52.062;11.722;2022-12-29T07:10:33;4.25;;;1.73;;
47669;SDS011;33408;52.062;11.722;2022-12-29T07:13:00;5.90;;;2.83;;
47669;SDS011;33408;52.062;11.722;2022-12-29T07:15:28;4.82;;;2.10;;
47669;SDS011;33408;52.062;11.722;2022-12-29T07:17:54;5.40;;;2.30;;
47669;SDS011;33408;52.062;11.722;2022-12-29T07:20:21;5.70;;;3.03;;
47669;SDS011;33408;52.062;11.722;2022-12-29T07:22:47;6.68;;;2.80;;
47669;SDS011;33408;52.062;11.722;2022-12-29T07:25:14;7.45;;;3.90;;
47669;SDS011;33408;52.062;11.722;2022-12-29T07:27:41;4.45;;;2.20;;
47669;SDS011;33408;52.062;11.722;2022-12-29T07:30:08;5.80;;;1.58;;
47669;SDS011;33408;52.062;11.722;2022-12-29T07:32:36;4.45;;;1.80;;
47669;SDS011;33408;52.062;11.722;2022-12-29T07:35:03;4.93;;;1.85;;
47669;SDS011;33408;52.062;11.722;2022-12-29T07:37:30;3.80;;;1.98;;
47669;SDS011;33408;52.062;11.722;2022-12-29T07:39:56;2.75;;;1.30;;
47669;SDS011;33408;52.062;11.722;2022-12-29T07:42:23;4.50;;;1.67;;
47669;SDS011;33408;52.062;11.722;2022-12-29T07:44:50;3.67;;;1.60;;
47669;SDS011;33408;52.062;11.722;2022-12-29T07:47:16;3.85;;;1.65;;
47669;SDS011;33408;52.062;11.722;2022-12-29T07:49:44;3.35;;;1.65;;
47669;SDS011;33408;52.062;11.722;2022-12-29T07:52:12;3.70;;;1.90;;
47669;SDS011;33408;52.062;11.722;2022-12-29T07:54:38;3.55;;;1.80;;
47669;SDS011;33408;52.062;11.722;2022-12-29T07:57:05;5.55;;;1.80;;
47669;SDS011;33408;52.062;11.722;2022-12-29T07:59:32;4.22;;;1.80;;
47669;SDS011;33408;52.062;11.722;2022-12-29T08:01:58;4.60;;;2.05;;
47669;SDS011;33408;52.062;11.722;2022-12-29T08:04:27;3.95;;;1.95;;
47669;SDS011;33408;52.062;11.722;2022-12-29T08:06:55;4.28;;;1.50;;
47669;SDS011;33408;52.062;11.722;2022-12-29T08:09:22;5.40;;;2.05;;
47669;SDS011;33408;52.062;11.722;2022-12-29T08:11:48;3.83;;;1.65;;
47669;SDS011;33408;52.062;11.722;2022-12-29T08:14:15;4.05;;;1.63;;
47669;SDS011;33408;52.062;11.722;2022-12-29T08:16:42;6.13;;;2.00;;
47669;SDS011;33408;52.062;11.722;2022-12-29T08:19:09;3.28;;;1.80;;
47669;SDS011;33408;52.062;11.722;2022-12-29T08:21:36;4.88;;;1.80;;
47669;SDS011;33408;52.062;11.722;2022-12-29T08:24:04;5.05;;;2.15;;
47669;SDS011;33408;52.062;11.722;2022-12-29T08:26:32;4.45;;;2.03;;
47669;SDS011;33408;52.062;11.722;2022-12-29T08:28:58;5.50;;;2.00;;
47669;SDS011;33408;52.062;11.722;2022-12-29T08:31:25;3.50;;;1.70;;
47669;SDS011;33408;52.062;11.722;2022-12-29T08:33:52;4.93;;;1.70;;
47669;SDS011;33408;52.062;11.722;2022-12-29T08:36:18;7.78;;;2.20;;
47669;SDS011;33408;52.062;11.722;2022-12-29T08:38:45;3.15;;;1.60;;
47669;SDS011;33408;52.062;11.722;2022-12-29T08:41:13;5.13;;;2.22;;
47669;SDS011;33408;52.062;11.722;2022-12-29T08:43:39;4.93;;;2.15;;
47669;SDS011;33408;52.062;11.722;2022-12-29T08:46:06;5.70;;;2.50;;
47669;SDS011;33408;52.062;11.722;2022-12-29T08:48:32;5.50;;;2.10;;
47669;SDS011;33408;52.062;11.722;2022-12-29T08:50:59;4.38;;;2.05;;
47669;SDS011;33408;52.062;11.722;2022-12-29T08:53:26;6.55;;;3.55;;
47669;SDS011;33408;52.062;11.722;2022-12-29T08:55:54;7.95;;;2.22;;
47669;SDS011;33408;52.062;11.722;2022-12-29T08:58:24;4.18;;;1.90;;
47669;SDS011;33408;52.062;11.722;2022-12-29T09:00:51;5.32;;;1.75;;
47669;SDS011;33408;52.062;11.722;2022-12-29T09:03:18;5.18;;;1.50;;
47669;SDS011;33408;52.062;11.722;2022-12-29T09:05:47;4.13;;;1.73;;
47669;SDS011;33408;52.062;11.722;2022-12-29T09:08:14;6.68;;;1.75;;
47669;SDS011;33408;52.062;11.722;2022-12-29T09:10:40;6.18;;;1.83;;
47669;SDS011;33408;52.062;11.722;2022-12-29T09:13:07;3.33;;;1.52;;
47669;SDS011;33408;52.062;11.722;2022-12-29T09:15:35;5.80;;;1.73;;
47669;SDS011;33408;52.062;11.722;2022-12-29T09:18:01;4.07;;;1.40;;
47669;SDS011;33408;52.062;11.722;2022-12-29T09:20:28;3.03;;;1.30;;
47669;SDS011;33408;52.062;11.722;2022-12-29T09:22:55;3.38;;;1.30;;
47669;SDS011;33408;52.062;11.722;2022-12-29T09:25:22;3.05;;;1.30;;
47669;SDS011;33408;52.062;11.722;2022-12-29T09:27:49;3.58;;;1.40;;
47669;SDS011;33408;52.062;11.722;2022-12-29T09:30:17;8.18;;;2.25;;
47669;SDS011;33408;52.062;11.722;2022-12-29T09:32:46;6.40;;;1.65;;
47669;SDS011;33408;52.062;11.722;2022-12-29T09:35:13;1.88;;;1.13;;
47669;SDS011;33408;52.062;11.722;2022-12-29T09:37:41;2.83;;;1.40;;
47669;SDS011;33408;52.062;11.722;2022-12-29T09:40:09;3.05;;;1.42;;
47669;SDS011;33408;52.062;11.722;2022-12-29T09:42:50;4.35;;;1.40;;
47669;SDS011;33408;52.062;11.722;2022-12-29T09:45:27;5.43;;;1.42;;
47669;SDS011;33408;52.062;11.722;2022-12-29T09:48:00;7.38;;;1.30;;
47669;SDS011;33408;52.062;11.722;2022-12-29T09:50:28;6.72;;;1.35;;
47669;SDS011;33408;52.062;11.722;2022-12-29T09:53:01;5.07;;;1.58;;
47669;SDS011;33408;52.062;11.722;2022-12-29T09:55:36;6.82;;;1.33;;
47669;SDS011;33408;52.062;11.722;2022-12-29T09:58:10;4.60;;;1.40;;
47669;SDS011;33408;52.062;11.722;2022-12-29T10:00:43;3.80;;;1.45;;
47669;SDS011;33408;52.062;11.722;2022-12-29T10:03:18;5.47;;;1.70;;
47669;SDS011;33408;52.062;11.722;2022-12-29T10:05:48;7.95;;;1.63;;
47669;SDS011;33408;52.062;11.722;2022-12-29T10:08:22;4.15;;;1.58;;
47669;SDS011;33408;52.062;11.722;2022-12-29T10:10:56;3.70;;;1.48;;
47669;SDS011;33408;52.062;11.722;2022-12-29T10:13:34;8.50;;;1.42;;
47669;SDS011;33408;52.062;11.722;2022-12-29T10:16:09;2.13;;;1.13;;
47669;SDS011;33408;52.062;11.722;2022-12-29T10:21:48;5.95;;;1.30;;
47669;SDS011;33408;52.062;11.722;2022-12-29T10:24:22;2.25;;;0.80;;
47669;SDS011;33408;52.062;11.722;2022-12-29T10:26:53;3.35;;;1.13;;
47669;SDS011;33408;52.062;11.722;2022-12-29T10:29:24;1.95;;;0.82;;
47669;SDS011;33408;52.062;11.722;2022-12-29T10:31:59;1.17;;;0.70;;
47669;SDS011;33408;52.062;11.722;2022-12-29T10:34:31;2.55;;;0.70;;
47669;SDS011;33408;52.062;11.722;2022-12-29T10:37:02;3.70;;;0.90;;
47669;SDS011;33408;52.062;11.722;2022-12-29T10:39:32;2.53;;;0.93;;
47669;SDS011;33408;52.062;11.722;2022-12-29T10:42:04;4.03;;;1.13;;
47669;SDS011;33408;52.062;11.722;2022-12-29T10:44:37;2.50;;;0.90;;
47669;SDS011;33408;52.062;11.722;2022-12-29T10:47:05;2.65;;;1.15;;
47669;SDS011;33408;52.062;11.722;2022-12-29T10:52:07;4.80;;;1.10;;
47669;SDS011;33408;52.062;11.722;2022-12-29T10:54:36;2.58;;;0.95;;
47669;SDS011;33408;52.062;11.722;2022-12-29T10:57:10;2.70;;;0.90;;
47669;SDS011;33408;52.062;11.722;2022-12-29T10:59:44;2.20;;;1.08;;
47669;SDS011;33408;52.062;11.722;2022-12-29T11:02:15;4.57;;;0.93;;
47669;SDS011;33408;52.062;11.722;2022-12-29T11:04:55;1.10;;;0.52;;
47669;SDS011;33408;52.062;11.722;2022-12-29T11:07:28;2.72;;;0.80;;
47669;SDS011;33408;52.062;11.722;2022-12-29T11:09:57;0.63;;;0.57;;
47669;SDS011;33408;52.062;11.722;2022-12-29T11:12:44;2.70;;;0.70;;
47669;SDS011;33408;52.062;11.722;2022-12-29T11:15:22;1.63;;;0.68;;
47669;SDS011;33408;52.062;11.722;2022-12-29T11:17:49;4.32;;;0.60;;
47669;SDS011;33408;52.062;11.722;2022-12-29T11:23:05;2.53;;;0.57;;
47669;SDS011;33408;52.062;11.722;2022-12-29T11:25:55;0.95;;;0.47;;
47669;SDS011;33408;52.062;11.722;2022-12-29T11:28:32;0.93;;;0.45;;
47669;SDS011;33408;52.062;11.722;2022-12-29T11:30:59;0.98;;;0.50;;
47669;SDS011;33408;52.062;11.722;2022-12-29T11:33:27;1.08;;;0.70;;
47669;SDS011;33408;52.062;11.722;2022-12-29T11:35:57;4.13;;;0.70;;
47669;SDS011;33408;52.062;11.722;2022-12-29T11:38:30;2.95;;;0.73;;
47669;SDS011;33408;52.062;11.722;2022-12-29T11:41:00;1.52;;;0.70;;
47669;SDS011;33408;52.062;11.722;2022-12-29T11:43:29;2.33;;;0.73;;
47669;SDS011;33408;52.062;11.722;2022-12-29T11:45:59;2.00;;;0.90;;
47669;SDS011;33408;52.062;11.722;2022-12-29T11:48:29;1.73;;;0.70;;
47669;SDS011;33408;52.062;11.722;2022-12-29T11:50:59;1.50;;;0.65;;
47669;SDS011;33408;52.062;11.722;2022-12-29T11:53:26;2.30;;;0.80;;
47669;SDS011;33408;52.062;11.722;2022-12-29T11:58:29;1.02;;;0.70;;
47669;SDS011;33408;52.062;11.722;2022-12-29T12:00:57;1.63;;;0.80;;
47669;SDS011;33408;52.062;11.722;2022-12-29T12:03:27;1.75;;;0.70;;
47669;SDS011;33408;52.062;11.722;2022-12-29T12:06:00;1.27;;;0.70;;
47669;SDS011;33408;52.062;11.722;2022-12-29T12:08:31;0.50;;;0.50;;
47669;SDS011;33408;52.062;11.722;2022-12-29T12:11:04;3.15;;;0.98;;
47669;SDS011;33408;52.062;11.722;2022-12-29T12:13:37;1.10;;;0.60;;
47669;SDS011;33408;52.062;11.722;2022-12-29T12:16:08;0.93;;;0.60;;
47669;SDS011;33408;52.062;11.722;2022-12-29T12:18:40;0.70;;;0.60;;
47669;SDS011;33408;52.062;11.722;2022-12-29T12:21:12;2.33;;;0.82;;
47669;SDS011;33408;52.062;11.722;2022-12-29T12:23:51;1.58;;;0.70;;
47669;SDS011;33408;52.062;11.722;2022-12-29T12:26:28;1.43;;;0.93;;
47669;SDS011;33408;52.062;11.722;2022-12-29T12:29:01;1.63;;;0.90;;
47669;SDS011;33408;52.062;11.722;2022-12-29T12:31:39;2.78;;;1.08;;
47669;SDS011;33408;52.062;11.722;2022-12-29T12:34:13;2.40;;;1.25;;
47669;SDS011;33408;52.062;11.722;2022-12-29T12:36:52;2.40;;;1.23;;
47669;SDS011;33408;52.062;11.722;2022-12-29T12:39:44;5.25;;;1.20;;
47669;SDS011;33408;52.062;11.722;2022-12-29T12:42:25;2.08;;;1.20;;
47669;SDS011;33408;52.062;11.722;2022-12-29T12:45:19;3.55;;;1.10;;
47669;SDS011;33408;52.062;11.722;2022-12-29T12:48:05;6.47;;;1.25;;
47669;SDS011;33408;52.062;11.722;2022-12-29T12:50:49;2.03;;;1.00;;
47669;SDS011;33408;52.062;11.722;2022-12-29T12:53:36;6.93;;;1.58;;
47669;SDS011;33408;52.062;11.722;2022-12-29T12:56:41;1.77;;;0.85;;
47669;SDS011;33408;52.062;11.722;2022-12-29T12:59:21;3.67;;;1.23;;
47669;SDS011;33408;52.062;11.722;2022-12-29T13:01:59;2.05;;;0.98;;
47669;SDS011;33408;52.062;11.722;2022-12-29T13:04:42;3.40;;;1.10;;
47669;SDS011;33408;52.062;11.722;2022-12-29T13:07:21;2.20;;;1.00;;
47669;SDS011;33408;52.062;11.722;2022-12-29T13:10:03;2.05;;;0.90;;
47669;SDS011;33408;52.062;11.722;2022-12-29T13:12:45;4.97;;;1.10;;
47669;SDS011;33408;52.062;11.722;2022-12-29T13:15:20;3.42;;;0.80;;
47669;SDS011;33408;52.062;11.722;2022-12-29T13:18:00;2.72;;;0.85;;
47669;SDS011;33408;52.062;11.722;2022-12-29T13:20:39;2.38;;;1.00;;
47669;SDS011;33408;52.062;11.722;2022-12-29T13:23:11;3.28;;;0.90;;
47669;SDS011;33408;52.062;11.722;2022-12-29T13:25:47;2.80;;;0.70;;
47669;SDS011;33408;52.062;11.722;2022-12-29T13:28:22;2.40;;;0.80;;
47669;SDS011;33408;52.062;11.722;2022-12-29T13:30:56;3.15;;;1.30;;
47669;SDS011;33408;52.062;11.722;2022-12-29T13:33:28;2.80;;;0.93;;
47669;SDS011;33408;52.062;11.722;2022-12-29T13:36:08;1.95;;;0.80;;
47669;SDS011;33408;52.062;11.722;2022-12-29T13:38:41;3.60;;;1.00;;
47669;SDS011;33408;52.062;11.722;2022-12-29T13:41:13;2.28;;;0.80;;
47669;SDS011;33408;52.062;11.722;2022-12-29T13:43:44;4.35;;;1.27;;
47669;SDS011;33408;52.062;11.722;2022-12-29T13:46:15;1.63;;;0.80;;
47669;SDS011;33408;52.062;11.722;2022-12-29T13:48:49;3.78;;;1.10;;
47669;SDS011;33408;52.062;11.722;2022-12-29T13:51:19;2.87;;;1.13;;
47669;SDS011;33408;52.062;11.722;2022-12-29T13:53:53;2.75;;;1.00;;
47669;SDS011;33408;52.062;11.722;2022-12-29T13:56:30;4.25;;;1.27;;
47669;SDS011;33408;52.062;11.722;2022-12-29T13:59:03;2.80;;;1.00;;
47669;SDS011;33408;52.062;11.722;2022-12-29T14:01:35;2.38;;;1.00;;
47669;SDS011;33408;52.062;11.722;2022-12-29T14:04:12;4.43;;;1.40;;
47669;SDS011;33408;52.062;11.722;2022-12-29T14:06:41;3.30;;;1.00;;
47669;SDS011;33408;52.062;11.722;2022-12-29T14:12:11;2.85;;;1.00;;
47669;SDS011;33408;52.062;11.722;2022-12-29T14:14:47;3.58;;;1.02;;
47669;SDS011;33408;52.062;11.722;2022-12-29T14:17:16;6.50;;;0.95;;
47669;SDS011;33408;52.062;11.722;2022-12-29T14:19:45;4.15;;;1.10;;
47669;SDS011;33408;52.062;11.722;2022-12-29T14:22:13;1.60;;;0.73;;
47669;SDS011;33408;52.062;11.722;2022-12-29T14:24:49;3.17;;;1.17;;
47669;SDS011;33408;52.062;11.722;2022-12-29T14:33:13;3.83;;;1.02;;
47669;SDS011;33408;52.062;11.722;2022-12-29T14:35:41;5.18;;;1.13;;
47669;SDS011;33408;52.062;11.722;2022-12-29T14:38:18;3.45;;;1.02;;
47669;SDS011;33408;52.062;11.722;2022-12-29T14:40:47;3.75;;;1.15;;
47669;SDS011;33408;52.062;11.722;2022-12-29T14:43:20;2.78;;;0.90;;
47669;SDS011;33408;52.062;11.722;2022-12-29T14:45:52;2.20;;;0.65;;
47669;SDS011;33408;52.062;11.722;2022-12-29T14:48:27;3.47;;;0.90;;
47669;SDS011;33408;52.062;11.722;2022-12-29T14:50:57;3.40;;;1.08;;
47669;SDS011;33408;52.062;11.722;2022-12-29T14:56:18;3.78;;;0.95;;
47669;SDS011;33408;52.062;11.722;2022-12-29T14:58:52;3.17;;;1.00;;
47669;SDS011;33408;52.062;11.722;2022-12-29T15:01:23;4.70;;;1.10;;
47669;SDS011;33408;52.062;11.722;2022-12-29T15:06:22;4.80;;;1.30;;
47669;SDS011;33408;52.062;11.722;2022-12-29T15:08:53;3.67;;;0.70;;
47669;SDS011;33408;52.062;11.722;2022-12-29T15:11:29;5.35;;;1.05;;
47669;SDS011;33408;52.062;11.722;2022-12-29T15:17:01;4.75;;;1.02;;
47669;SDS011;33408;52.062;11.722;2022-12-29T15:19:36;2.75;;;0.98;;
47669;SDS011;33408;52.062;11.722;2022-12-29T15:22:03;5.80;;;1.17;;
47669;SDS011;33408;52.062;11.722;2022-12-29T15:24:30;3.58;;;0.90;;
47669;SDS011;33408;52.062;11.722;2022-12-29T15:26:58;3.35;;;1.00;;
47669;SDS011;33408;52.062;11.722;2022-12-29T15:29:30;4.75;;;0.82;;